createdAt,value
2022-08-27T00:00:54.140Z,13.38
2022-08-27T00:03:22.556Z,12.27
2022-08-27T00:05:51.572Z,12.30
2022-08-27T00:08:20.072Z,12.82
2022-08-27T00:10:50.692Z,11.85
2022-08-27T00:13:19.156Z,12.32
2022-08-27T00:15:48.696Z,11.57
2022-08-27T00:18:22.026Z,11.57
2022-08-27T00:20:52.420Z,11.35
2022-08-27T00:23:21.206Z,12.50
2022-08-27T00:25:50.916Z,12.10
2022-08-27T00:28:20.657Z,11.30
2022-08-27T00:30:49.012Z,11.27
2022-08-27T00:33:18.155Z,12.75
2022-08-27T00:35:47.079Z,11.60
2022-08-27T00:38:15.848Z,11.63
2022-08-27T00:40:46.084Z,11.48
2022-08-27T00:43:23.434Z,12.25
2022-08-27T00:45:54.379Z,12.15
2022-08-27T00:48:29.494Z,11.32
2022-08-27T00:50:58.589Z,11.00
2022-08-27T00:53:29.920Z,10.98
2022-08-27T00:56:06.073Z,11.38
2022-08-27T00:58:39.058Z,11.13
2022-08-27T01:01:09.630Z,11.95
2022-08-27T01:03:39.624Z,11.07
2022-08-27T01:06:12.134Z,11.05
2022-08-27T01:08:52.842Z,11.02
2022-08-27T01:11:22.333Z,10.60
2022-08-27T01:13:59.906Z,10.35
2022-08-27T01:16:36.921Z,10.57
2022-08-27T01:19:08.818Z,9.77
2022-08-27T01:21:47.405Z,10.27
2022-08-27T01:24:33.771Z,10.18
2022-08-27T01:27:04.536Z,10.23
2022-08-27T01:29:34.706Z,9.98
2022-08-27T01:32:10.823Z,11.68
2022-08-27T01:34:39.584Z,9.43
2022-08-27T01:37:08.615Z,10.48
2022-08-27T01:39:41.764Z,10.70
2022-08-27T01:42:15.186Z,9.45
2022-08-27T01:44:50.402Z,10.88
2022-08-27T01:47:21.767Z,10.48
2022-08-27T01:49:51.479Z,10.13
2022-08-27T01:52:22.534Z,10.43
2022-08-27T01:54:52.418Z,9.73
2022-08-27T01:57:25.832Z,10.77
2022-08-27T01:59:56.921Z,10.13
2022-08-27T02:02:26.398Z,10.00
2022-08-27T02:04:55.156Z,10.30
2022-08-27T02:07:24.189Z,11.52
2022-08-27T02:09:54.458Z,10.38
2022-08-27T02:12:23.323Z,9.95
2022-08-27T02:14:51.818Z,10.27
2022-08-27T02:17:20.640Z,9.02
2022-08-27T02:19:49.176Z,9.10
2022-08-27T02:22:17.995Z,9.32
2022-08-27T02:24:47.241Z,9.80
2022-08-27T02:27:17.327Z,9.13
2022-08-27T02:29:49.712Z,9.65
2022-08-27T02:32:23.949Z,9.45
2022-08-27T02:35:00.947Z,9.25
2022-08-27T02:37:29.944Z,8.68
2022-08-27T02:39:59.696Z,8.93
2022-08-27T02:42:30.498Z,8.30
2022-08-27T02:44:59.275Z,9.25
2022-08-27T02:47:28.135Z,8.75
2022-08-27T02:49:57.608Z,9.75
2022-08-27T02:52:27.399Z,9.27
2022-08-27T02:54:56.176Z,8.63
2022-08-27T02:57:25.947Z,8.93
2022-08-27T02:59:55.662Z,8.45
2022-08-27T03:02:25.819Z,9.43
2022-08-27T03:04:56.558Z,9.02
2022-08-27T03:07:25.182Z,9.38
2022-08-27T03:09:54.144Z,9.50
2022-08-27T03:12:24.707Z,9.50
2022-08-27T03:14:53.347Z,9.70
2022-08-27T03:17:41.254Z,9.80
2022-08-27T03:20:12.369Z,9.10
2022-08-27T03:22:42.654Z,8.23
2022-08-27T03:25:12.158Z,8.30
2022-08-27T03:27:41.226Z,8.70
2022-08-27T03:30:13.306Z,8.75
2022-08-27T03:32:43.890Z,8.23
2022-08-27T03:35:14.028Z,8.18
2022-08-27T03:37:42.959Z,7.68
2022-08-27T03:40:13.390Z,8.32
2022-08-27T03:42:43.356Z,8.52
2022-08-27T03:45:13.052Z,8.43
2022-08-27T03:47:43.761Z,7.95
2022-08-27T03:50:12.166Z,8.30
2022-08-27T03:52:41.353Z,8.02
2022-08-27T03:55:10.861Z,9.57
2022-08-27T03:57:41.268Z,8.93
2022-08-27T04:00:12.763Z,9.40
2022-08-27T04:02:41.395Z,8.88
2022-08-27T04:05:13.905Z,8.70
2022-08-27T04:07:43.004Z,8.55
2022-08-27T04:10:13.851Z,8.27
2022-08-27T04:12:43.441Z,8.32
2022-08-27T04:15:14.065Z,9.25
2022-08-27T04:17:43.234Z,8.55
2022-08-27T04:20:34.566Z,7.93
2022-08-27T04:23:02.502Z,7.95
2022-08-27T04:25:31.417Z,9.43
2022-08-27T04:28:00.252Z,8.65
2022-08-27T04:30:29.371Z,8.82
2022-08-27T04:32:58.230Z,9.43
2022-08-27T04:35:28.342Z,8.98
2022-08-27T04:37:57.526Z,8.73
2022-08-27T04:40:47.282Z,9.60
2022-08-27T04:43:17.597Z,8.75
2022-08-27T04:45:48.666Z,9.32
2022-08-27T04:48:19.847Z,9.00
2022-08-27T04:50:49.845Z,8.93
2022-08-27T04:53:19.791Z,8.35
2022-08-27T04:55:50.626Z,9.50
2022-08-27T04:58:21.055Z,8.90
2022-08-27T05:00:54.300Z,9.02
2022-08-27T05:03:26.481Z,9.80
2022-08-27T05:06:02.474Z,9.35
2022-08-27T05:08:31.673Z,9.98
2022-08-27T05:11:00.887Z,11.32
2022-08-27T05:13:30.253Z,10.20
2022-08-27T05:16:01.628Z,8.95
2022-08-27T05:18:33.270Z,9.68
2022-08-27T05:21:07.066Z,10.85
2022-08-27T05:23:41.264Z,9.85
2022-08-27T05:26:10.234Z,9.82
2022-08-27T05:28:39.208Z,11.93
2022-08-27T05:31:10.533Z,11.27
2022-08-27T05:33:40.734Z,10.20
2022-08-27T05:36:17.275Z,11.82
2022-08-27T05:38:46.235Z,11.98
2022-08-27T05:41:17.331Z,10.52
2022-08-27T05:43:50.152Z,8.57
2022-08-27T05:46:21.755Z,9.70
2022-08-27T05:48:52.095Z,9.60
2022-08-27T05:51:25.901Z,9.82
2022-08-27T05:54:02.885Z,9.95
2022-08-27T05:56:36.679Z,9.63
2022-08-27T05:59:29.559Z,9.63
2022-08-27T06:01:58.861Z,9.15
2022-08-27T06:04:27.323Z,9.20
2022-08-27T06:06:57.151Z,9.05
2022-08-27T06:09:29.671Z,10.10
2022-08-27T06:12:00.255Z,10.35
2022-08-27T06:14:29.898Z,10.13
2022-08-27T06:17:00.728Z,11.38
2022-08-27T06:19:30.117Z,12.63
2022-08-27T06:22:10.468Z,10.70
2022-08-27T06:24:41.771Z,10.55
2022-08-27T06:27:12.673Z,11.48
2022-08-27T06:29:42.208Z,11.75
2022-08-27T06:32:12.461Z,12.40
2022-08-27T06:34:41.234Z,10.60
2022-08-27T06:37:10.995Z,10.05
2022-08-27T06:39:40.738Z,11.25
2022-08-27T06:42:12.842Z,11.05
2022-08-27T06:44:42.535Z,11.80
2022-08-27T06:47:12.158Z,11.02
2022-08-27T06:49:46.209Z,11.18
2022-08-27T06:52:17.333Z,10.52
2022-08-27T06:54:46.222Z,11.48
2022-08-27T06:57:15.343Z,11.00
2022-08-27T06:59:44.140Z,11.35
2022-08-27T07:02:13.301Z,11.95
2022-08-27T07:04:42.290Z,11.45
2022-08-27T07:07:13.424Z,11.18
2022-08-27T07:09:43.993Z,9.68
2022-08-27T07:12:12.791Z,10.98
2022-08-27T07:14:41.195Z,10.88
2022-08-27T07:17:10.964Z,10.95
2022-08-27T07:19:44.550Z,10.85
2022-08-27T07:22:13.048Z,11.02
2022-08-27T07:24:43.615Z,11.48
2022-08-27T07:27:12.730Z,11.00
2022-08-27T07:29:41.499Z,11.07
2022-08-27T07:32:10.858Z,10.23
2022-08-27T07:34:39.616Z,10.57
2022-08-27T07:37:08.122Z,10.77
2022-08-27T07:39:36.971Z,10.50
2022-08-27T07:42:24.394Z,10.45
2022-08-27T07:44:53.520Z,10.75
2022-08-27T07:47:21.978Z,11.07
2022-08-27T07:49:52.780Z,10.50
2022-08-27T07:52:25.891Z,10.35
2022-08-27T07:54:54.887Z,10.13
2022-08-27T07:57:25.935Z,10.57
2022-08-27T07:59:54.544Z,9.25
2022-08-27T08:02:31.320Z,10.07
2022-08-27T08:04:59.732Z,9.98
2022-08-27T08:07:29.016Z,9.68
2022-08-27T08:09:57.507Z,10.40
2022-08-27T08:12:27.607Z,10.68
2022-08-27T08:14:58.051Z,10.10
2022-08-27T08:17:26.592Z,9.85
2022-08-27T08:20:18.503Z,11.40
2022-08-27T08:22:47.296Z,11.48
2022-08-27T08:25:17.247Z,10.63
2022-08-27T08:27:48.162Z,10.05
2022-08-27T08:30:16.581Z,10.10
2022-08-27T08:32:45.896Z,10.70
2022-08-27T08:35:14.515Z,10.25
2022-08-27T08:37:44.372Z,9.88
2022-08-27T08:40:26.273Z,11.13
2022-08-27T08:42:57.811Z,10.57
2022-08-27T08:45:30.480Z,10.35
2022-08-27T08:48:06.401Z,10.45
2022-08-27T08:50:40.738Z,10.18
2022-08-27T08:53:20.403Z,10.02
2022-08-27T08:55:52.331Z,11.10
2022-08-27T08:58:30.990Z,11.07
2022-08-27T09:01:03.049Z,10.68
2022-08-27T09:03:35.791Z,11.85
2022-08-27T09:06:08.855Z,11.25
2022-08-27T09:08:41.859Z,11.13
2022-08-27T09:11:22.283Z,10.32
2022-08-27T09:13:56.967Z,10.90
2022-08-27T09:16:26.645Z,10.93
2022-08-27T09:18:56.329Z,9.40
2022-08-27T09:21:34.152Z,11.32
2022-08-27T09:24:15.848Z,11.60
2022-08-27T09:26:45.098Z,10.07
2022-08-27T09:29:20.571Z,10.98
2022-08-27T09:31:55.981Z,11.10
2022-08-27T09:34:25.858Z,10.65
2022-08-27T09:37:02.988Z,11.20
2022-08-27T09:39:43.013Z,11.10
2022-08-27T09:42:26.358Z,10.40
2022-08-27T09:44:57.764Z,11.77
2022-08-27T09:47:27.015Z,13.63
2022-08-27T09:50:06.978Z,10.95
2022-08-27T09:52:38.722Z,12.00
2022-08-27T09:55:08.393Z,12.00
2022-08-27T09:57:41.314Z,10.65
2022-08-27T10:00:17.070Z,11.30
2022-08-27T10:02:54.379Z,10.70
2022-08-27T10:05:32.690Z,10.15
2022-08-27T10:08:07.502Z,11.00
2022-08-27T10:10:44.506Z,9.80
2022-08-27T10:13:21.174Z,10.65
2022-08-27T10:16:03.013Z,10.23
2022-08-27T10:18:42.442Z,9.23
2022-08-27T10:21:18.383Z,9.95
2022-08-27T10:23:59.875Z,9.55
2022-08-27T10:26:37.020Z,9.80
2022-08-27T10:29:18.676Z,9.38
2022-08-27T10:32:00.607Z,8.52
2022-08-27T10:34:39.347Z,9.77
2022-08-27T10:37:25.386Z,8.85
2022-08-27T10:40:08.210Z,9.70
2022-08-27T10:42:43.266Z,9.18
2022-08-27T10:45:24.074Z,9.00
2022-08-27T10:48:11.141Z,8.75
2022-08-27T10:50:47.756Z,8.20
2022-08-27T10:53:28.612Z,8.52
2022-08-27T10:56:07.124Z,9.68
2022-08-27T10:58:45.559Z,8.30
2022-08-27T11:01:22.340Z,8.48
2022-08-27T11:03:59.254Z,7.53
2022-08-27T11:06:33.135Z,9.15
2022-08-27T11:09:07.968Z,7.07
2022-08-27T11:12:12.734Z,7.80
2022-08-27T11:14:39.097Z,8.07
2022-08-27T11:17:14.586Z,7.40
2022-08-27T11:19:51.838Z,8.77
2022-08-27T11:22:29.526Z,8.27
2022-08-27T11:25:04.332Z,7.25
2022-08-27T11:27:34.851Z,7.40
2022-08-27T11:30:07.695Z,7.07
2022-08-27T11:32:55.056Z,7.75
2022-08-27T11:35:34.681Z,6.65
2022-08-27T11:38:27.957Z,6.88
2022-08-27T11:41:17.700Z,7.82
2022-08-27T11:43:47.891Z,7.18
2022-08-27T11:46:25.155Z,6.85
2022-08-27T11:48:59.881Z,7.03
2022-08-27T11:51:35.045Z,6.32
2022-08-27T11:54:06.587Z,5.90
2022-08-27T11:56:42.004Z,6.43
2022-08-27T11:59:20.163Z,6.30
2022-08-27T12:01:49.411Z,6.47
2022-08-27T12:04:25.272Z,6.25
2022-08-27T12:07:03.571Z,6.35
2022-08-27T12:09:48.316Z,5.53
2022-08-27T12:12:20.782Z,6.20
2022-08-27T12:14:54.794Z,5.55
2022-08-27T12:17:32.503Z,5.60
2022-08-27T12:20:11.524Z,5.43
2022-08-27T12:23:15.791Z,4.75
2022-08-27T12:25:56.642Z,5.63
2022-08-27T12:28:27.040Z,5.50
2022-08-27T12:30:57.093Z,5.10
2022-08-27T12:33:31.914Z,5.32
2022-08-27T12:36:09.228Z,4.97
2022-08-27T12:38:50.565Z,5.55
2022-08-27T12:41:27.870Z,5.03
2022-08-27T12:44:07.762Z,5.72
2022-08-27T12:46:46.064Z,5.57
2022-08-27T12:49:38.571Z,5.13
2022-08-27T12:52:20.339Z,5.28
2022-08-27T12:55:05.164Z,5.78
2022-08-27T12:57:42.360Z,5.43
2022-08-27T13:00:19.227Z,5.43
2022-08-27T13:03:19.611Z,5.47
2022-08-27T13:05:51.360Z,5.60
2022-08-27T13:08:22.700Z,5.40
2022-08-27T13:10:53.034Z,5.65
2022-08-27T13:13:23.624Z,5.53
2022-08-27T13:15:56.057Z,5.50
2022-08-27T13:18:29.899Z,5.40
2022-08-27T13:21:05.719Z,5.43
2022-08-27T13:23:35.332Z,5.47
2022-08-27T13:26:09.110Z,5.75
2022-08-27T13:28:40.905Z,5.47
2022-08-27T13:31:11.748Z,5.47
2022-08-27T13:33:42.291Z,5.25
2022-08-27T13:36:11.507Z,5.60
2022-08-27T13:38:46.591Z,6.10
2022-08-27T13:41:27.320Z,6.15
2022-08-27T13:43:59.446Z,5.45
2022-08-27T13:46:31.759Z,5.80
2022-08-27T13:49:02.284Z,5.82
2022-08-27T13:51:32.841Z,5.53
2022-08-27T13:54:15.878Z,5.50
2022-08-27T13:57:04.071Z,5.60
2022-08-27T13:59:33.192Z,5.40
2022-08-27T14:02:21.690Z,6.07
2022-08-27T14:04:52.418Z,5.80
2022-08-27T14:07:25.995Z,5.55
2022-08-27T14:09:58.248Z,5.63
2022-08-27T14:12:33.162Z,5.65
2022-08-27T14:15:33.675Z,6.20
2022-08-27T14:18:04.379Z,5.35
2022-08-27T14:20:33.301Z,5.55
2022-08-27T14:23:01.993Z,6.38
2022-08-27T14:25:31.562Z,5.55
2022-08-27T14:28:02.010Z,6.05
2022-08-27T14:30:31.387Z,6.30
2022-08-27T14:33:00.518Z,5.78
2022-08-27T14:35:30.886Z,7.72
2022-08-27T14:38:02.002Z,5.97
2022-08-27T14:40:31.508Z,5.65
2022-08-27T14:43:02.856Z,6.20
2022-08-27T14:45:31.697Z,5.68
2022-08-27T14:48:02.043Z,6.05
2022-08-27T14:50:31.336Z,6.35
2022-08-27T14:52:59.779Z,6.63
2022-08-27T14:55:28.337Z,6.03
2022-08-27T14:57:57.350Z,6.38
2022-08-27T15:00:30.270Z,6.30
2022-08-27T15:02:59.751Z,6.57
2022-08-27T15:05:28.541Z,6.15
2022-08-27T15:07:58.011Z,6.15
2022-08-27T15:10:27.451Z,6.22
2022-08-27T15:12:55.862Z,5.47
2022-08-27T15:15:24.315Z,5.47
2022-08-27T15:17:54.088Z,6.20
2022-08-27T15:20:23.508Z,7.40
2022-08-27T15:22:53.314Z,5.47
2022-08-27T15:25:23.070Z,6.65
2022-08-27T15:27:52.155Z,5.03
2022-08-27T15:30:29.665Z,5.40
2022-08-27T15:32:59.568Z,5.97
2022-08-27T15:35:28.741Z,5.95
2022-08-27T15:37:59.015Z,6.13
2022-08-27T15:40:29.257Z,5.97
2022-08-27T15:43:02.107Z,6.43
2022-08-27T15:45:32.362Z,5.93
2022-08-27T15:48:02.503Z,6.70
2022-08-27T15:50:32.501Z,6.82
2022-08-27T15:53:03.457Z,5.68
2022-08-27T15:55:34.970Z,5.40
2022-08-27T15:58:03.706Z,6.60
2022-08-27T16:00:35.620Z,5.90
2022-08-27T16:03:09.855Z,11.02
2022-08-27T16:05:40.772Z,6.72
2022-08-27T16:08:10.261Z,5.18
2022-08-27T16:10:39.083Z,30.95
2022-08-27T16:13:08.186Z,25.73
2022-08-27T16:15:40.502Z,14.48
2022-08-27T16:18:11.607Z,8.68
2022-08-27T16:20:41.753Z,5.70
2022-08-27T16:23:10.607Z,4.20
2022-08-27T16:25:39.165Z,4.22
2022-08-27T16:28:07.892Z,3.38
2022-08-27T16:30:36.452Z,3.45
2022-08-27T16:33:05.550Z,3.83
2022-08-27T16:35:35.680Z,3.70
2022-08-27T16:38:04.860Z,3.42
2022-08-27T16:40:37.100Z,4.13
2022-08-27T16:43:05.899Z,4.25
2022-08-27T16:45:34.257Z,4.50
2022-08-27T16:48:20.335Z,4.25
2022-08-27T16:50:50.328Z,3.70
2022-08-27T16:53:21.894Z,3.80
2022-08-27T16:55:52.173Z,3.40
2022-08-27T16:58:23.556Z,3.40
2022-08-27T17:00:54.930Z,3.85
2022-08-27T17:03:25.070Z,3.53
2022-08-27T17:05:55.277Z,3.90
2022-08-27T17:08:27.764Z,3.17
2022-08-27T17:10:57.819Z,3.30
2022-08-27T17:13:30.684Z,3.35
2022-08-27T17:16:01.932Z,3.05
2022-08-27T17:18:30.488Z,2.90
2022-08-27T17:21:01.169Z,3.10
2022-08-27T17:23:34.608Z,3.22
2022-08-27T17:26:03.890Z,2.78
2022-08-27T17:28:32.387Z,3.50
2022-08-27T17:31:02.452Z,2.92
2022-08-27T17:33:33.828Z,3.22
2022-08-27T17:36:03.991Z,2.97
2022-08-27T17:38:37.928Z,2.50
2022-08-27T17:41:14.213Z,2.90
2022-08-27T17:43:44.070Z,2.80
2022-08-27T17:46:13.818Z,2.78
2022-08-27T17:48:43.686Z,2.70
2022-08-27T17:51:14.586Z,2.72
2022-08-27T17:53:48.390Z,2.80
2022-08-27T17:56:18.616Z,2.60
2022-08-27T17:58:48.204Z,2.70
2022-08-27T18:01:20.753Z,3.20
2022-08-27T18:03:50.178Z,3.00
2022-08-27T18:06:20.006Z,2.53
2022-08-27T18:08:49.177Z,2.20
2022-08-27T18:11:18.555Z,2.90
2022-08-27T18:13:52.166Z,2.80
2022-08-27T18:16:21.288Z,2.97
2022-08-27T18:18:50.451Z,2.80
2022-08-27T18:21:25.443Z,2.95
2022-08-27T18:23:55.348Z,3.00
2022-08-27T18:26:26.991Z,2.70
2022-08-27T18:28:57.509Z,2.97
2022-08-27T18:31:33.718Z,2.97
2022-08-27T18:34:02.633Z,3.20
2022-08-27T18:36:32.702Z,3.00
2022-08-27T18:39:01.148Z,3.38
2022-08-27T18:41:31.438Z,3.45
2022-08-27T18:44:00.045Z,3.50
2022-08-27T18:46:29.003Z,3.60
2022-08-27T18:48:57.456Z,4.22
2022-08-27T18:51:25.912Z,3.95
2022-08-27T18:54:01.554Z,4.18
2022-08-27T18:56:30.511Z,3.70
2022-08-27T18:58:59.418Z,3.50
2022-08-27T19:01:29.381Z,3.88
2022-08-27T19:03:58.182Z,3.80
2022-08-27T19:06:26.918Z,3.50
2022-08-27T19:08:55.611Z,4.03
2022-08-27T19:11:25.638Z,3.80
2022-08-27T19:13:54.036Z,4.20
2022-08-27T19:16:40.066Z,3.80
2022-08-27T19:19:08.672Z,3.45
2022-08-27T19:21:37.224Z,3.83
2022-08-27T19:24:06.685Z,3.88
2022-08-27T19:26:37.306Z,3.72
2022-08-27T19:29:08.188Z,3.38
2022-08-27T19:31:37.958Z,3.10
2022-08-27T19:34:08.432Z,2.92
2022-08-27T19:36:42.074Z,2.95
2022-08-27T19:39:12.622Z,2.65
2022-08-27T19:41:42.496Z,3.00
2022-08-27T19:44:10.862Z,2.40
2022-08-27T19:46:39.473Z,3.05
2022-08-27T19:49:08.626Z,2.85
2022-08-27T19:51:37.241Z,3.10
2022-08-27T19:54:05.772Z,2.60
2022-08-27T19:56:34.559Z,2.72
2022-08-27T19:59:17.864Z,2.95
2022-08-27T20:01:50.719Z,3.38
2022-08-27T20:04:19.667Z,3.13
2022-08-27T20:06:48.241Z,3.15
2022-08-27T20:09:18.816Z,3.15
2022-08-27T20:11:47.982Z,3.08
2022-08-27T20:14:18.600Z,3.00
2022-08-27T20:16:48.505Z,3.45
2022-08-27T20:19:19.935Z,2.72
2022-08-27T20:21:48.311Z,3.00
2022-08-27T20:24:17.353Z,2.70
2022-08-27T20:26:46.015Z,3.00
2022-08-27T20:29:15.035Z,2.47
2022-08-27T20:32:00.010Z,2.92
2022-08-27T20:34:29.575Z,2.60
2022-08-27T20:36:58.814Z,2.47
2022-08-27T20:39:27.152Z,3.05
2022-08-27T20:41:56.427Z,2.83
2022-08-27T20:44:24.884Z,2.78
2022-08-27T20:46:58.775Z,3.22
2022-08-27T20:49:28.902Z,3.47
2022-08-27T20:52:03.236Z,3.15
2022-08-27T20:54:33.822Z,3.22
2022-08-27T20:57:03.688Z,3.05
2022-08-27T20:59:49.427Z,3.10
2022-08-27T21:02:22.710Z,3.30
2022-08-27T21:04:53.038Z,3.17
2022-08-27T21:07:22.578Z,3.08
2022-08-27T21:09:57.220Z,3.03
2022-08-27T21:12:27.167Z,3.30
2022-08-27T21:14:56.695Z,3.50
2022-08-27T21:17:29.248Z,3.30
2022-08-27T21:19:59.083Z,3.20
2022-08-27T21:22:28.492Z,2.92
2022-08-27T21:24:57.247Z,2.80
2022-08-27T21:27:26.051Z,3.20
2022-08-27T21:29:55.081Z,3.40
2022-08-27T21:32:23.470Z,3.40
2022-08-27T21:34:53.068Z,3.50
2022-08-27T21:37:23.949Z,3.72
2022-08-27T21:39:52.397Z,3.22
2022-08-27T21:42:22.023Z,3.75
2022-08-27T21:44:50.498Z,3.80
2022-08-27T21:47:19.796Z,3.67
2022-08-27T21:49:48.174Z,3.92
2022-08-27T21:52:17.225Z,4.55
2022-08-27T21:54:46.988Z,3.50
2022-08-27T21:57:16.295Z,4.05
2022-08-27T21:59:46.802Z,4.32
2022-08-27T22:02:38.642Z,3.92
2022-08-27T22:05:07.143Z,4.07
2022-08-27T22:07:35.527Z,3.95
2022-08-27T22:10:06.028Z,3.58
2022-08-27T22:12:34.841Z,3.88
2022-08-27T22:15:04.159Z,3.90
2022-08-27T22:17:32.555Z,3.88
2022-08-27T22:20:00.912Z,4.10
2022-08-27T22:22:30.876Z,4.60
2022-08-27T22:24:59.928Z,4.20
2022-08-27T22:27:29.664Z,3.92
2022-08-27T22:29:58.026Z,4.85
2022-08-27T22:32:26.827Z,4.90
2022-08-27T22:34:55.152Z,5.20
2022-08-27T22:37:23.776Z,4.97
2022-08-27T22:39:52.649Z,5.22
2022-08-27T22:42:21.027Z,5.15
2022-08-27T22:44:51.163Z,5.40
2022-08-27T22:47:19.590Z,5.00
2022-08-27T22:49:48.840Z,5.10
2022-08-27T22:52:23.231Z,5.15
2022-08-27T22:54:57.539Z,5.30
2022-08-27T22:57:25.984Z,5.47
2022-08-27T22:59:56.740Z,4.70
2022-08-27T23:02:25.146Z,5.05
2022-08-27T23:04:55.574Z,4.93
2022-08-27T23:07:24.452Z,4.32
2022-08-27T23:09:53.981Z,4.57
2022-08-27T23:12:23.103Z,5.20
2022-08-27T23:14:52.432Z,5.30
2022-08-27T23:17:23.904Z,5.38
2022-08-27T23:19:53.440Z,5.45
2022-08-27T23:22:22.810Z,4.97
2022-08-27T23:25:08.918Z,4.82
2022-08-27T23:27:38.362Z,5.40
2022-08-27T23:30:08.348Z,4.45
2022-08-27T23:32:38.342Z,5.25
2022-08-27T23:35:08.586Z,5.70
2022-08-27T23:37:37.747Z,5.30
2022-08-27T23:40:09.841Z,5.55
2022-08-27T23:42:39.579Z,5.35
2022-08-27T23:45:10.620Z,5.35
2022-08-27T23:47:40.452Z,5.85
2022-08-27T23:50:11.008Z,5.70
2022-08-27T23:52:40.757Z,5.40
2022-08-27T23:55:10.472Z,6.03
2022-08-27T23:57:39.802Z,5.20
